sensor_id;sensor_type;location;lat;lon;timestamp;P1;durP1;ratioP1;P2;durP2;ratioP2
69369;SDS011;56530;42.640;23.372;2023-08-17T00:01:48;7.18;;;6.47;;
69369;SDS011;56530;42.640;23.372;2023-08-17T00:04:13;8.55;;;7.20;;
69369;SDS011;56530;42.640;23.372;2023-08-17T00:06:39;8.30;;;6.35;;
69369;SDS011;56530;42.640;23.372;2023-08-17T00:09:04;8.00;;;6.72;;
69369;SDS011;56530;42.640;23.372;2023-08-17T00:11:30;9.18;;;6.35;;
69369;SDS011;56530;42.640;23.372;2023-08-17T00:13:55;8.65;;;6.35;;
69369;SDS011;56530;42.640;23.372;2023-08-17T00:16:20;8.55;;;5.85;;
69369;SDS011;56530;42.640;23.372;2023-08-17T00:18:47;6.97;;;5.72;;
69369;SDS011;56530;42.640;23.372;2023-08-17T00:21:13;8.63;;;5.78;;
69369;SDS011;56530;42.640;23.372;2023-08-17T00:23:38;5.95;;;5.45;;
69369;SDS011;56530;42.640;23.372;2023-08-17T00:26:04;5.68;;;5.00;;
69369;SDS011;56530;42.640;23.372;2023-08-17T00:28:29;10.00;;;6.07;;
69369;SDS011;56530;42.640;23.372;2023-08-17T00:30:54;8.32;;;5.35;;
69369;SDS011;56530;42.640;23.372;2023-08-17T00:33:20;6.43;;;4.88;;
69369;SDS011;56530;42.640;23.372;2023-08-17T00:35:45;7.63;;;4.85;;
69369;SDS011;56530;42.640;23.372;2023-08-17T00:38:11;6.18;;;4.70;;
69369;SDS011;56530;42.640;23.372;2023-08-17T00:40:37;7.00;;;4.47;;
69369;SDS011;56530;42.640;23.372;2023-08-17T00:43:02;4.72;;;3.88;;
69369;SDS011;56530;42.640;23.372;2023-08-17T00:45:28;7.30;;;4.57;;
69369;SDS011;56530;42.640;23.372;2023-08-17T00:47:55;5.45;;;4.03;;
69369;SDS011;56530;42.640;23.372;2023-08-17T00:50:21;8.95;;;4.40;;
69369;SDS011;56530;42.640;23.372;2023-08-17T00:52:47;4.07;;;3.67;;
69369;SDS011;56530;42.640;23.372;2023-08-17T00:55:13;4.63;;;4.22;;
69369;SDS011;56530;42.640;23.372;2023-08-17T00:57:38;4.03;;;3.40;;
69369;SDS011;56530;42.640;23.372;2023-08-17T01:00:05;5.97;;;3.53;;
69369;SDS011;56530;42.640;23.372;2023-08-17T01:02:32;4.78;;;3.67;;
69369;SDS011;56530;42.640;23.372;2023-08-17T01:04:58;5.07;;;3.58;;
69369;SDS011;56530;42.640;23.372;2023-08-17T01:07:23;3.75;;;3.38;;
69369;SDS011;56530;42.640;23.372;2023-08-17T01:09:49;5.38;;;3.63;;
69369;SDS011;56530;42.640;23.372;2023-08-17T01:17:33;3.38;;;2.97;;
69369;SDS011;56530;42.640;23.372;2023-08-17T01:20:03;3.72;;;3.25;;
69369;SDS011;56530;42.640;23.372;2023-08-17T01:22:30;5.80;;;3.63;;
69369;SDS011;56530;42.640;23.372;2023-08-17T01:24:58;5.75;;;3.50;;
69369;SDS011;56530;42.640;23.372;2023-08-17T01:27:24;4.63;;;3.22;;
69369;SDS011;56530;42.640;23.372;2023-08-17T01:29:50;7.85;;;3.30;;
69369;SDS011;56530;42.640;23.372;2023-08-17T01:32:18;6.40;;;3.50;;
69369;SDS011;56530;42.640;23.372;2023-08-17T01:34:54;3.65;;;3.35;;
69369;SDS011;56530;42.640;23.372;2023-08-17T01:37:22;5.40;;;3.75;;
69369;SDS011;56530;42.640;23.372;2023-08-17T01:39:52;4.68;;;4.22;;
69369;SDS011;56530;42.640;23.372;2023-08-17T01:42:22;6.22;;;3.53;;
69369;SDS011;56530;42.640;23.372;2023-08-17T01:44:48;6.13;;;3.78;;
69369;SDS011;56530;42.640;23.372;2023-08-17T01:47:14;3.80;;;3.50;;
69369;SDS011;56530;42.640;23.372;2023-08-17T01:49:39;8.63;;;3.90;;
69369;SDS011;56530;42.640;23.372;2023-08-17T01:52:05;5.43;;;3.22;;
69369;SDS011;56530;42.640;23.372;2023-08-17T01:54:30;3.80;;;2.78;;
69369;SDS011;56530;42.640;23.372;2023-08-17T01:56:56;4.63;;;3.38;;
69369;SDS011;56530;42.640;23.372;2023-08-17T01:59:21;8.38;;;2.90;;
69369;SDS011;56530;42.640;23.372;2023-08-17T02:01:47;7.00;;;3.55;;
69369;SDS011;56530;42.640;23.372;2023-08-17T02:04:12;3.58;;;3.17;;
69369;SDS011;56530;42.640;23.372;2023-08-17T02:06:37;3.85;;;3.15;;
69369;SDS011;56530;42.640;23.372;2023-08-17T02:09:03;4.10;;;3.45;;
69369;SDS011;56530;42.640;23.372;2023-08-17T02:11:28;6.38;;;3.10;;
69369;SDS011;56530;42.640;23.372;2023-08-17T02:13:53;3.63;;;3.17;;
69369;SDS011;56530;42.640;23.372;2023-08-17T02:16:19;3.30;;;3.00;;
69369;SDS011;56530;42.640;23.372;2023-08-17T02:18:44;4.78;;;3.28;;
69369;SDS011;56530;42.640;23.372;2023-08-17T02:21:10;4.53;;;2.90;;
69369;SDS011;56530;42.640;23.372;2023-08-17T02:23:35;6.50;;;3.30;;
69369;SDS011;56530;42.640;23.372;2023-08-17T02:26:00;4.25;;;2.80;;
69369;SDS011;56530;42.640;23.372;2023-08-17T02:28:26;3.55;;;3.20;;
69369;SDS011;56530;42.640;23.372;2023-08-17T02:30:55;4.00;;;3.25;;
69369;SDS011;56530;42.640;23.372;2023-08-17T02:33:21;3.92;;;3.15;;
69369;SDS011;56530;42.640;23.372;2023-08-17T02:35:50;5.07;;;3.50;;
69369;SDS011;56530;42.640;23.372;2023-08-17T02:38:16;3.72;;;3.15;;
69369;SDS011;56530;42.640;23.372;2023-08-17T02:40:41;5.72;;;3.47;;
69369;SDS011;56530;42.640;23.372;2023-08-17T02:43:07;3.63;;;3.33;;
69369;SDS011;56530;42.640;23.372;2023-08-17T02:45:33;5.63;;;3.53;;
69369;SDS011;56530;42.640;23.372;2023-08-17T02:47:59;7.90;;;3.20;;
69369;SDS011;56530;42.640;23.372;2023-08-17T02:50:24;4.13;;;3.20;;
69369;SDS011;56530;42.640;23.372;2023-08-17T02:52:49;4.30;;;3.55;;
69369;SDS011;56530;42.640;23.372;2023-08-17T02:55:15;3.42;;;3.13;;
69369;SDS011;56530;42.640;23.372;2023-08-17T02:57:40;4.63;;;3.13;;
69369;SDS011;56530;42.640;23.372;2023-08-17T03:00:06;5.97;;;3.35;;
69369;SDS011;56530;42.640;23.372;2023-08-17T03:02:32;3.97;;;3.65;;
69369;SDS011;56530;42.640;23.372;2023-08-17T03:04:57;3.67;;;3.38;;
69369;SDS011;56530;42.640;23.372;2023-08-17T03:07:22;3.78;;;3.15;;
69369;SDS011;56530;42.640;23.372;2023-08-17T03:09:48;5.50;;;2.92;;
69369;SDS011;56530;42.640;23.372;2023-08-17T03:12:13;5.07;;;2.88;;
69369;SDS011;56530;42.640;23.372;2023-08-17T03:14:39;3.20;;;3.00;;
69369;SDS011;56530;42.640;23.372;2023-08-17T03:17:04;3.60;;;3.30;;
69369;SDS011;56530;42.640;23.372;2023-08-17T03:19:30;3.95;;;3.00;;
69369;SDS011;56530;42.640;23.372;2023-08-17T03:21:55;4.55;;;3.45;;
69369;SDS011;56530;42.640;23.372;2023-08-17T03:24:20;4.90;;;3.47;;
69369;SDS011;56530;42.640;23.372;2023-08-17T03:26:46;12.82;;;3.45;;
69369;SDS011;56530;42.640;23.372;2023-08-17T03:29:11;5.85;;;3.38;;
69369;SDS011;56530;42.640;23.372;2023-08-17T03:31:37;6.35;;;3.35;;
69369;SDS011;56530;42.640;23.372;2023-08-17T03:34:02;4.03;;;3.28;;
69369;SDS011;56530;42.640;23.372;2023-08-17T03:36:28;4.55;;;3.47;;
69369;SDS011;56530;42.640;23.372;2023-08-17T03:38:53;3.20;;;3.00;;
69369;SDS011;56530;42.640;23.372;2023-08-17T03:41:18;5.80;;;2.97;;
69369;SDS011;56530;42.640;23.372;2023-08-17T03:43:44;7.07;;;3.15;;
69369;SDS011;56530;42.640;23.372;2023-08-17T03:46:09;5.93;;;3.40;;
69369;SDS011;56530;42.640;23.372;2023-08-17T03:48:34;3.25;;;2.95;;
69369;SDS011;56530;42.640;23.372;2023-08-17T03:51:00;5.10;;;3.30;;
69369;SDS011;56530;42.640;23.372;2023-08-17T03:53:26;6.65;;;3.25;;
69369;SDS011;56530;42.640;23.372;2023-08-17T03:55:52;7.53;;;2.90;;
69369;SDS011;56530;42.640;23.372;2023-08-17T03:58:17;3.20;;;2.90;;
69369;SDS011;56530;42.640;23.372;2023-08-17T04:00:48;3.90;;;3.08;;
69369;SDS011;56530;42.640;23.372;2023-08-17T04:03:15;5.25;;;2.72;;
69369;SDS011;56530;42.640;23.372;2023-08-17T04:05:40;4.07;;;2.70;;
69369;SDS011;56530;42.640;23.372;2023-08-17T04:08:05;5.72;;;2.80;;
69369;SDS011;56530;42.640;23.372;2023-08-17T04:10:31;6.88;;;2.88;;
69369;SDS011;56530;42.640;23.372;2023-08-17T04:12:56;2.97;;;2.75;;
69369;SDS011;56530;42.640;23.372;2023-08-17T04:15:22;6.45;;;2.80;;
69369;SDS011;56530;42.640;23.372;2023-08-17T04:17:47;3.42;;;2.60;;
69369;SDS011;56530;42.640;23.372;2023-08-17T04:20:13;2.72;;;2.47;;
69369;SDS011;56530;42.640;23.372;2023-08-17T04:22:38;5.63;;;4.20;;
69369;SDS011;56530;42.640;23.372;2023-08-17T04:25:03;2.55;;;2.35;;
69369;SDS011;56530;42.640;23.372;2023-08-17T04:27:29;2.60;;;2.40;;
69369;SDS011;56530;42.640;23.372;2023-08-17T04:29:55;4.40;;;2.40;;
69369;SDS011;56530;42.640;23.372;2023-08-17T04:32:20;5.85;;;2.53;;
69369;SDS011;56530;42.640;23.372;2023-08-17T04:34:46;2.47;;;2.28;;
69369;SDS011;56530;42.640;23.372;2023-08-17T04:37:13;6.57;;;2.33;;
69369;SDS011;56530;42.640;23.372;2023-08-17T04:39:38;5.90;;;2.90;;
69369;SDS011;56530;42.640;23.372;2023-08-17T04:42:04;4.90;;;2.25;;
69369;SDS011;56530;42.640;23.372;2023-08-17T04:44:29;3.60;;;2.30;;
69369;SDS011;56530;42.640;23.372;2023-08-17T04:46:55;4.25;;;2.05;;
69369;SDS011;56530;42.640;23.372;2023-08-17T04:49:20;5.10;;;2.30;;
69369;SDS011;56530;42.640;23.372;2023-08-17T04:51:45;6.57;;;2.97;;
69369;SDS011;56530;42.640;23.372;2023-08-17T04:54:11;4.30;;;2.10;;
69369;SDS011;56530;42.640;23.372;2023-08-17T04:56:36;3.33;;;2.00;;
69369;SDS011;56530;42.640;23.372;2023-08-17T04:59:02;2.78;;;2.40;;
69369;SDS011;56530;42.640;23.372;2023-08-17T05:01:27;2.90;;;2.60;;
69369;SDS011;56530;42.640;23.372;2023-08-17T05:03:52;5.47;;;2.78;;
69369;SDS011;56530;42.640;23.372;2023-08-17T05:06:18;3.22;;;2.30;;
69369;SDS011;56530;42.640;23.372;2023-08-17T05:08:43;3.80;;;2.53;;
69369;SDS011;56530;42.640;23.372;2023-08-17T05:11:08;2.97;;;2.50;;
69369;SDS011;56530;42.640;23.372;2023-08-17T05:13:34;2.95;;;2.65;;
69369;SDS011;56530;42.640;23.372;2023-08-17T05:15:59;3.17;;;2.58;;
69369;SDS011;56530;42.640;23.372;2023-08-17T05:18:25;9.77;;;2.80;;
69369;SDS011;56530;42.640;23.372;2023-08-17T05:20:50;4.85;;;3.22;;
69369;SDS011;56530;42.640;23.372;2023-08-17T05:23:15;2.53;;;2.33;;
69369;SDS011;56530;42.640;23.372;2023-08-17T05:25:41;3.72;;;1.73;;
69369;SDS011;56530;42.640;23.372;2023-08-17T05:28:06;2.85;;;2.05;;
69369;SDS011;56530;42.640;23.372;2023-08-17T05:30:32;5.63;;;2.35;;
69369;SDS011;56530;42.640;23.372;2023-08-17T05:32:58;4.30;;;2.63;;
69369;SDS011;56530;42.640;23.372;2023-08-17T05:35:23;4.38;;;2.80;;
69369;SDS011;56530;42.640;23.372;2023-08-17T05:37:49;2.95;;;2.38;;
69369;SDS011;56530;42.640;23.372;2023-08-17T05:40:14;2.28;;;2.08;;
69369;SDS011;56530;42.640;23.372;2023-08-17T05:42:40;7.88;;;2.05;;
69369;SDS011;56530;42.640;23.372;2023-08-17T05:45:05;4.18;;;2.10;;
69369;SDS011;56530;42.640;23.372;2023-08-17T05:47:31;3.95;;;2.97;;
69369;SDS011;56530;42.640;23.372;2023-08-17T05:49:57;2.50;;;2.30;;
69369;SDS011;56530;42.640;23.372;2023-08-17T05:52:22;3.65;;;3.10;;
69369;SDS011;56530;42.640;23.372;2023-08-17T05:54:47;5.32;;;2.63;;
69369;SDS011;56530;42.640;23.372;2023-08-17T05:57:13;4.38;;;2.70;;
69369;SDS011;56530;42.640;23.372;2023-08-17T05:59:38;7.32;;;3.20;;
69369;SDS011;56530;42.640;23.372;2023-08-17T06:02:04;7.80;;;3.03;;
69369;SDS011;56530;42.640;23.372;2023-08-17T06:04:29;14.70;;;3.97;;
69369;SDS011;56530;42.640;23.372;2023-08-17T06:06:54;12.35;;;4.20;;
69369;SDS011;56530;42.640;23.372;2023-08-17T06:09:20;9.75;;;4.10;;
69369;SDS011;56530;42.640;23.372;2023-08-17T06:11:45;10.75;;;3.80;;
69369;SDS011;56530;42.640;23.372;2023-08-17T06:14:11;5.90;;;3.47;;
69369;SDS011;56530;42.640;23.372;2023-08-17T06:16:37;7.85;;;3.45;;
69369;SDS011;56530;42.640;23.372;2023-08-17T06:19:02;7.78;;;3.78;;
69369;SDS011;56530;42.640;23.372;2023-08-17T06:21:28;8.52;;;3.47;;
69369;SDS011;56530;42.640;23.372;2023-08-17T06:23:53;6.30;;;3.35;;
69369;SDS011;56530;42.640;23.372;2023-08-17T06:26:19;7.72;;;2.97;;
69369;SDS011;56530;42.640;23.372;2023-08-17T06:28:44;4.50;;;3.10;;
69369;SDS011;56530;42.640;23.372;2023-08-17T06:31:09;4.20;;;3.50;;
69369;SDS011;56530;42.640;23.372;2023-08-17T06:33:35;3.13;;;2.85;;
69369;SDS011;56530;42.640;23.372;2023-08-17T06:36:00;5.25;;;3.20;;
69369;SDS011;56530;42.640;23.372;2023-08-17T06:38:25;7.93;;;2.90;;
69369;SDS011;56530;42.640;23.372;2023-08-17T06:40:51;5.65;;;3.28;;
69369;SDS011;56530;42.640;23.372;2023-08-17T06:43:17;5.20;;;3.47;;
69369;SDS011;56530;42.640;23.372;2023-08-17T06:45:43;5.40;;;3.70;;
69369;SDS011;56530;42.640;23.372;2023-08-17T06:48:08;13.70;;;4.30;;
69369;SDS011;56530;42.640;23.372;2023-08-17T06:50:34;6.90;;;3.67;;
69369;SDS011;56530;42.640;23.372;2023-08-17T06:53:00;4.65;;;4.18;;
69369;SDS011;56530;42.640;23.372;2023-08-17T06:55:27;6.80;;;4.35;;
69369;SDS011;56530;42.640;23.372;2023-08-17T06:57:53;5.60;;;3.90;;
69369;SDS011;56530;42.640;23.372;2023-08-17T07:00:20;10.32;;;4.38;;
69369;SDS011;56530;42.640;23.372;2023-08-17T07:02:46;5.22;;;3.30;;
69369;SDS011;56530;42.640;23.372;2023-08-17T07:05:15;9.23;;;3.13;;
69369;SDS011;56530;42.640;23.372;2023-08-17T07:07:41;7.25;;;3.47;;
69369;SDS011;56530;42.640;23.372;2023-08-17T07:10:07;2.97;;;2.78;;
69369;SDS011;56530;42.640;23.372;2023-08-17T07:12:33;4.82;;;3.58;;
69369;SDS011;56530;42.640;23.372;2023-08-17T07:14:58;7.25;;;3.97;;
69369;SDS011;56530;42.640;23.372;2023-08-17T07:17:24;5.68;;;3.85;;
69369;SDS011;56530;42.640;23.372;2023-08-17T07:19:49;5.85;;;2.70;;
69369;SDS011;56530;42.640;23.372;2023-08-17T07:22:14;5.72;;;3.15;;
69369;SDS011;56530;42.640;23.372;2023-08-17T07:24:41;8.18;;;3.63;;
69369;SDS011;56530;42.640;23.372;2023-08-17T07:27:07;5.00;;;3.78;;
69369;SDS011;56530;42.640;23.372;2023-08-17T07:29:32;3.92;;;3.05;;
69369;SDS011;56530;42.640;23.372;2023-08-17T07:31:57;12.65;;;3.45;;
69369;SDS011;56530;42.640;23.372;2023-08-17T07:34:26;2.95;;;2.63;;
69369;SDS011;56530;42.640;23.372;2023-08-17T07:36:52;4.15;;;2.70;;
69369;SDS011;56530;42.640;23.372;2023-08-17T07:39:17;3.65;;;2.78;;
69369;SDS011;56530;42.640;23.372;2023-08-17T07:41:43;6.70;;;3.63;;
69369;SDS011;56530;42.640;23.372;2023-08-17T07:44:09;3.80;;;2.80;;
69369;SDS011;56530;42.640;23.372;2023-08-17T07:46:34;5.57;;;3.50;;
69369;SDS011;56530;42.640;23.372;2023-08-17T07:49:00;7.95;;;3.40;;
69369;SDS011;56530;42.640;23.372;2023-08-17T07:51:25;5.10;;;3.80;;
69369;SDS011;56530;42.640;23.372;2023-08-17T07:53:50;4.93;;;3.35;;
69369;SDS011;56530;42.640;23.372;2023-08-17T07:56:16;4.68;;;3.00;;
69369;SDS011;56530;42.640;23.372;2023-08-17T07:58:41;4.43;;;3.35;;
69369;SDS011;56530;42.640;23.372;2023-08-17T08:01:06;7.07;;;3.45;;
69369;SDS011;56530;42.640;23.372;2023-08-17T08:03:32;5.88;;;3.05;;
69369;SDS011;56530;42.640;23.372;2023-08-17T08:05:57;6.10;;;3.75;;
69369;SDS011;56530;42.640;23.372;2023-08-17T08:08:23;5.80;;;3.20;;
69369;SDS011;56530;42.640;23.372;2023-08-17T08:10:48;3.75;;;2.90;;
69369;SDS011;56530;42.640;23.372;2023-08-17T08:13:14;4.20;;;3.15;;
69369;SDS011;56530;42.640;23.372;2023-08-17T08:15:39;3.45;;;3.17;;
69369;SDS011;56530;42.640;23.372;2023-08-17T08:18:05;5.82;;;2.90;;
69369;SDS011;56530;42.640;23.372;2023-08-17T08:20:30;7.60;;;3.17;;
69369;SDS011;56530;42.640;23.372;2023-08-17T08:22:56;4.40;;;2.90;;
69369;SDS011;56530;42.640;23.372;2023-08-17T08:25:21;5.70;;;3.85;;
69369;SDS011;56530;42.640;23.372;2023-08-17T08:27:46;4.05;;;2.95;;
69369;SDS011;56530;42.640;23.372;2023-08-17T08:30:12;9.63;;;3.10;;
69369;SDS011;56530;42.640;23.372;2023-08-17T08:32:37;11.88;;;3.25;;
69369;SDS011;56530;42.640;23.372;2023-08-17T08:35:02;9.50;;;3.05;;
69369;SDS011;56530;42.640;23.372;2023-08-17T08:37:28;11.95;;;2.88;;
69369;SDS011;56530;42.640;23.372;2023-08-17T08:39:54;7.88;;;3.65;;
69369;SDS011;56530;42.640;23.372;2023-08-17T08:42:20;6.45;;;3.30;;
69369;SDS011;56530;42.640;23.372;2023-08-17T08:44:46;6.40;;;3.92;;
69369;SDS011;56530;42.640;23.372;2023-08-17T08:47:14;6.25;;;3.10;;
69369;SDS011;56530;42.640;23.372;2023-08-17T08:49:40;7.53;;;2.60;;
69369;SDS011;56530;42.640;23.372;2023-08-17T08:52:09;4.38;;;3.03;;
69369;SDS011;56530;42.640;23.372;2023-08-17T08:54:38;3.72;;;2.95;;
69369;SDS011;56530;42.640;23.372;2023-08-17T08:57:08;6.05;;;2.97;;
69369;SDS011;56530;42.640;23.372;2023-08-17T08:59:35;4.18;;;2.75;;
69369;SDS011;56530;42.640;23.372;2023-08-17T09:02:00;8.52;;;5.10;;
69369;SDS011;56530;42.640;23.372;2023-08-17T09:04:26;7.82;;;3.33;;
69369;SDS011;56530;42.640;23.372;2023-08-17T09:06:52;5.30;;;2.60;;
69369;SDS011;56530;42.640;23.372;2023-08-17T09:09:18;3.83;;;2.58;;
69369;SDS011;56530;42.640;23.372;2023-08-17T09:11:44;6.90;;;3.50;;
69369;SDS011;56530;42.640;23.372;2023-08-17T09:14:10;2.90;;;2.55;;
69369;SDS011;56530;42.640;23.372;2023-08-17T09:16:35;4.72;;;2.83;;
69369;SDS011;56530;42.640;23.372;2023-08-17T09:19:01;3.00;;;2.53;;
69369;SDS011;56530;42.640;23.372;2023-08-17T09:21:30;7.88;;;3.97;;
69369;SDS011;56530;42.640;23.372;2023-08-17T09:23:56;12.25;;;2.15;;
69369;SDS011;56530;42.640;23.372;2023-08-17T09:26:22;2.22;;;2.08;;
69369;SDS011;56530;42.640;23.372;2023-08-17T09:28:49;5.40;;;2.67;;
69369;SDS011;56530;42.640;23.372;2023-08-17T09:31:15;4.43;;;2.67;;
69369;SDS011;56530;42.640;23.372;2023-08-17T09:33:40;3.50;;;2.08;;
69369;SDS011;56530;42.640;23.372;2023-08-17T09:36:05;2.33;;;2.13;;
69369;SDS011;56530;42.640;23.372;2023-08-17T09:38:31;2.45;;;2.25;;
69369;SDS011;56530;42.640;23.372;2023-08-17T09:40:57;3.65;;;2.63;;
69369;SDS011;56530;42.640;23.372;2023-08-17T09:43:23;3.50;;;2.88;;
69369;SDS011;56530;42.640;23.372;2023-08-17T09:45:50;1.55;;;1.48;;
69369;SDS011;56530;42.640;23.372;2023-08-17T09:48:16;1.98;;;1.80;;
69369;SDS011;56530;42.640;23.372;2023-08-17T09:50:43;2.10;;;2.00;;
69369;SDS011;56530;42.640;23.372;2023-08-17T09:53:13;2.80;;;2.17;;
69369;SDS011;56530;42.640;23.372;2023-08-17T09:55:42;2.40;;;2.20;;
69369;SDS011;56530;42.640;23.372;2023-08-17T09:58:08;2.72;;;2.13;;
69369;SDS011;56530;42.640;23.372;2023-08-17T10:00:34;9.63;;;2.40;;
69369;SDS011;56530;42.640;23.372;2023-08-17T10:03:04;3.00;;;2.45;;
69369;SDS011;56530;42.640;23.372;2023-08-17T10:05:30;2.88;;;2.28;;
69369;SDS011;56530;42.640;23.372;2023-08-17T10:07:57;2.30;;;1.85;;
69369;SDS011;56530;42.640;23.372;2023-08-17T10:10:26;2.42;;;2.22;;
69369;SDS011;56530;42.640;23.372;2023-08-17T10:15:24;2.38;;;2.13;;
69369;SDS011;56530;42.640;23.372;2023-08-17T10:18:00;2.38;;;2.17;;
69369;SDS011;56530;42.640;23.372;2023-08-17T10:20:32;2.22;;;2.13;;
69369;SDS011;56530;42.640;23.372;2023-08-17T10:23:11;2.17;;;1.98;;
69369;SDS011;56530;42.640;23.372;2023-08-17T10:25:40;2.63;;;2.15;;
69369;SDS011;56530;42.640;23.372;2023-08-17T10:28:06;3.55;;;2.30;;
69369;SDS011;56530;42.640;23.372;2023-08-17T10:30:34;2.80;;;2.55;;
69369;SDS011;56530;42.640;23.372;2023-08-17T10:32:59;2.58;;;2.38;;
69369;SDS011;56530;42.640;23.372;2023-08-17T10:35:25;12.38;;;4.30;;
69369;SDS011;56530;42.640;23.372;2023-08-17T10:37:51;2.75;;;2.05;;
69369;SDS011;56530;42.640;23.372;2023-08-17T10:40:17;3.92;;;2.22;;
69369;SDS011;56530;42.640;23.372;2023-08-17T10:42:53;2.83;;;2.20;;
69369;SDS011;56530;42.640;23.372;2023-08-17T10:45:27;2.67;;;2.47;;
69369;SDS011;56530;42.640;23.372;2023-08-17T10:50:31;1.88;;;1.77;;
69369;SDS011;56530;42.640;23.372;2023-08-17T10:52:58;3.08;;;2.15;;
69369;SDS011;56530;42.640;23.372;2023-08-17T10:55:35;6.45;;;2.83;;
69369;SDS011;56530;42.640;23.372;2023-08-17T10:58:02;2.47;;;2.17;;
69369;SDS011;56530;42.640;23.372;2023-08-17T11:00:35;3.95;;;2.30;;
69369;SDS011;56530;42.640;23.372;2023-08-17T11:03:06;3.85;;;2.15;;
69369;SDS011;56530;42.640;23.372;2023-08-17T11:05:50;7.25;;;1.92;;
69369;SDS011;56530;42.640;23.372;2023-08-17T11:11:12;2.28;;;2.08;;
69369;SDS011;56530;42.640;23.372;2023-08-17T11:13:39;2.15;;;1.98;;
69369;SDS011;56530;42.640;23.372;2023-08-17T11:16:05;6.88;;;2.75;;
69369;SDS011;56530;42.640;23.372;2023-08-17T11:18:32;5.72;;;2.30;;
69369;SDS011;56530;42.640;23.372;2023-08-17T11:20:58;2.50;;;2.20;;
69369;SDS011;56530;42.640;23.372;2023-08-17T11:23:23;3.92;;;2.45;;
69369;SDS011;56530;42.640;23.372;2023-08-17T11:25:49;2.97;;;2.78;;
69369;SDS011;56530;42.640;23.372;2023-08-17T11:28:17;3.58;;;2.40;;
69369;SDS011;56530;42.640;23.372;2023-08-17T11:30:42;2.72;;;2.25;;
69369;SDS011;56530;42.640;23.372;2023-08-17T11:33:08;7.13;;;2.53;;
69369;SDS011;56530;42.640;23.372;2023-08-17T11:35:34;7.18;;;2.35;;
69369;SDS011;56530;42.640;23.372;2023-08-17T11:38:00;5.57;;;3.85;;
69369;SDS011;56530;42.640;23.372;2023-08-17T11:40:26;3.90;;;2.60;;
69369;SDS011;56530;42.640;23.372;2023-08-17T11:42:52;6.00;;;3.30;;
69369;SDS011;56530;42.640;23.372;2023-08-17T11:45:18;9.57;;;2.60;;
69369;SDS011;56530;42.640;23.372;2023-08-17T11:47:43;2.90;;;2.70;;
69369;SDS011;56530;42.640;23.372;2023-08-17T11:50:10;7.85;;;4.05;;
69369;SDS011;56530;42.640;23.372;2023-08-17T11:52:36;3.42;;;3.03;;
69369;SDS011;56530;42.640;23.372;2023-08-17T11:55:02;3.70;;;3.17;;
69369;SDS011;56530;42.640;23.372;2023-08-17T11:57:30;4.10;;;3.47;;
69369;SDS011;56530;42.640;23.372;2023-08-17T11:59:56;2.78;;;2.45;;
69369;SDS011;56530;42.640;23.372;2023-08-17T12:02:26;5.75;;;2.90;;
69369;SDS011;56530;42.640;23.372;2023-08-17T12:04:52;6.70;;;2.63;;
69369;SDS011;56530;42.640;23.372;2023-08-17T12:07:18;11.20;;;3.08;;
69369;SDS011;56530;42.640;23.372;2023-08-17T12:09:45;7.78;;;3.42;;
69369;SDS011;56530;42.640;23.372;2023-08-17T12:12:10;2.75;;;2.55;;
69369;SDS011;56530;42.640;23.372;2023-08-17T12:14:36;3.83;;;2.97;;
69369;SDS011;56530;42.640;23.372;2023-08-17T12:17:02;10.55;;;3.25;;
69369;SDS011;56530;42.640;23.372;2023-08-17T12:19:28;3.38;;;3.08;;
69369;SDS011;56530;42.640;23.372;2023-08-17T12:21:54;5.40;;;3.22;;
69369;SDS011;56530;42.640;23.372;2023-08-17T12:24:19;4.75;;;2.58;;
69369;SDS011;56530;42.640;23.372;2023-08-17T12:26:45;2.95;;;2.70;;
69369;SDS011;56530;42.640;23.372;2023-08-17T12:29:11;3.47;;;3.17;;
69369;SDS011;56530;42.640;23.372;2023-08-17T12:31:37;3.83;;;3.33;;
69369;SDS011;56530;42.640;23.372;2023-08-17T12:34:02;5.32;;;3.20;;
69369;SDS011;56530;42.640;23.372;2023-08-17T12:36:29;6.57;;;3.25;;
69369;SDS011;56530;42.640;23.372;2023-08-17T12:38:54;3.60;;;3.30;;
69369;SDS011;56530;42.640;23.372;2023-08-17T12:41:20;5.85;;;2.55;;
69369;SDS011;56530;42.640;23.372;2023-08-17T12:43:46;10.18;;;2.53;;
69369;SDS011;56530;42.640;23.372;2023-08-17T12:46:11;3.13;;;2.83;;
69369;SDS011;56530;42.640;23.372;2023-08-17T12:48:37;4.97;;;3.40;;
69369;SDS011;56530;42.640;23.372;2023-08-17T12:51:03;6.72;;;3.63;;
69369;SDS011;56530;42.640;23.372;2023-08-17T12:53:29;4.43;;;2.83;;
69369;SDS011;56530;42.640;23.372;2023-08-17T12:55:54;5.38;;;3.50;;
69369;SDS011;56530;42.640;23.372;2023-08-17T12:58:20;3.72;;;2.83;;
69369;SDS011;56530;42.640;23.372;2023-08-17T13:00:45;4.38;;;3.20;;
69369;SDS011;56530;42.640;23.372;2023-08-17T13:03:10;4.13;;;3.58;;
69369;SDS011;56530;42.640;23.372;2023-08-17T13:05:36;3.30;;;2.67;;
69369;SDS011;56530;42.640;23.372;2023-08-17T13:08:01;5.63;;;2.60;;
69369;SDS011;56530;42.640;23.372;2023-08-17T13:10:27;4.55;;;3.25;;
69369;SDS011;56530;42.640;23.372;2023-08-17T13:12:53;4.75;;;4.30;;
69369;SDS011;56530;42.640;23.372;2023-08-17T13:15:21;4.25;;;3.35;;
69369;SDS011;56530;42.640;23.372;2023-08-17T13:17:47;3.75;;;3.45;;
69369;SDS011;56530;42.640;23.372;2023-08-17T13:20:13;3.35;;;3.00;;
69369;SDS011;56530;42.640;23.372;2023-08-17T13:22:38;5.07;;;2.78;;
69369;SDS011;56530;42.640;23.372;2023-08-17T13:25:04;7.53;;;3.10;;
69369;SDS011;56530;42.640;23.372;2023-08-17T13:27:29;4.45;;;3.35;;
69369;SDS011;56530;42.640;23.372;2023-08-17T13:29:55;7.88;;;3.50;;
69369;SDS011;56530;42.640;23.372;2023-08-17T13:32:20;4.22;;;3.35;;
69369;SDS011;56530;42.640;23.372;2023-08-17T13:34:46;9.02;;;5.95;;
69369;SDS011;56530;42.640;23.372;2023-08-17T13:37:11;5.03;;;3.53;;
69369;SDS011;56530;42.640;23.372;2023-08-17T13:39:37;7.20;;;3.63;;
69369;SDS011;56530;42.640;23.372;2023-08-17T13:42:02;5.57;;;3.67;;
69369;SDS011;56530;42.640;23.372;2023-08-17T13:44:27;8.90;;;3.47;;
69369;SDS011;56530;42.640;23.372;2023-08-17T13:46:53;3.83;;;3.28;;
69369;SDS011;56530;42.640;23.372;2023-08-17T13:49:18;6.25;;;3.10;;
69369;SDS011;56530;42.640;23.372;2023-08-17T13:51:44;4.55;;;3.35;;
69369;SDS011;56530;42.640;23.372;2023-08-17T13:54:09;6.45;;;4.50;;
69369;SDS011;56530;42.640;23.372;2023-08-17T13:56:34;4.97;;;3.60;;
69369;SDS011;56530;42.640;23.372;2023-08-17T13:59:00;5.05;;;2.80;;
69369;SDS011;56530;42.640;23.372;2023-08-17T14:01:25;6.70;;;4.28;;
69369;SDS011;56530;42.640;23.372;2023-08-17T14:03:51;4.55;;;3.45;;
69369;SDS011;56530;42.640;23.372;2023-08-17T14:06:16;5.13;;;3.53;;
69369;SDS011;56530;42.640;23.372;2023-08-17T14:08:42;7.55;;;3.08;;
69369;SDS011;56530;42.640;23.372;2023-08-17T14:11:07;6.95;;;3.38;;
69369;SDS011;56530;42.640;23.372;2023-08-17T14:13:33;4.07;;;3.65;;
69369;SDS011;56530;42.640;23.372;2023-08-17T14:15:59;3.17;;;2.85;;
69369;SDS011;56530;42.640;23.372;2023-08-17T14:18:25;3.47;;;3.15;;
69369;SDS011;56530;42.640;23.372;2023-08-17T14:20:50;4.82;;;3.00;;
69369;SDS011;56530;42.640;23.372;2023-08-17T14:23:16;3.28;;;3.08;;
69369;SDS011;56530;42.640;23.372;2023-08-17T14:25:42;4.13;;;3.70;;
69369;SDS011;56530;42.640;23.372;2023-08-17T14:28:07;10.55;;;3.50;;
69369;SDS011;56530;42.640;23.372;2023-08-17T14:30:33;7.25;;;3.20;;
69369;SDS011;56530;42.640;23.372;2023-08-17T14:32:58;8.38;;;3.30;;
69369;SDS011;56530;42.640;23.372;2023-08-17T14:35:24;6.97;;;3.78;;
69369;SDS011;56530;42.640;23.372;2023-08-17T14:37:49;7.32;;;3.97;;
69369;SDS011;56530;42.640;23.372;2023-08-17T14:40:15;13.40;;;3.38;;